createdAt,value
2022-10-18T00:01:09.357Z,1.88
2022-10-18T00:03:38.246Z,1.83
2022-10-18T00:06:08.954Z,1.52
2022-10-18T00:08:38.229Z,1.98
2022-10-18T00:11:06.954Z,1.60
2022-10-18T00:13:35.043Z,1.25
2022-10-18T00:16:05.756Z,1.55
2022-10-18T00:18:34.851Z,1.52
2022-10-18T00:21:05.478Z,1.40
2022-10-18T00:23:35.127Z,1.75
2022-10-18T00:26:07.876Z,1.27
2022-10-18T00:28:37.206Z,1.15
2022-10-18T00:31:20.870Z,1.50
2022-10-18T00:33:53.391Z,1.48
2022-10-18T00:36:22.141Z,1.38
2022-10-18T00:38:50.574Z,1.40
2022-10-18T00:41:21.935Z,1.38
2022-10-18T00:43:57.052Z,1.77
2022-10-18T00:46:26.894Z,1.30
2022-10-18T00:48:58.902Z,1.08
2022-10-18T00:51:33.517Z,0.80
2022-10-18T00:56:44.222Z,1.25
2022-10-18T00:59:13.130Z,1.17
2022-10-18T01:01:40.926Z,1.20
2022-10-18T01:04:10.101Z,1.45
2022-10-18T01:06:54.185Z,1.42
2022-10-18T01:09:40.601Z,1.02
2022-10-18T01:12:25.518Z,1.67
2022-10-18T01:17:36.462Z,1.00
2022-10-18T01:20:37.490Z,1.60
2022-10-18T01:23:13.708Z,1.17
2022-10-18T01:25:53.478Z,1.48
2022-10-18T01:28:43.377Z,1.13
2022-10-18T01:31:19.814Z,1.48
2022-10-18T01:33:52.389Z,1.33
2022-10-18T01:36:26.996Z,1.40
2022-10-18T01:41:29.298Z,1.85
2022-10-18T01:44:03.294Z,1.70
2022-10-18T01:46:34.349Z,1.00
2022-10-18T01:49:02.068Z,1.30
2022-10-18T01:51:33.099Z,1.10
2022-10-18T01:54:01.630Z,1.98
2022-10-18T01:56:43.563Z,1.92
2022-10-18T01:59:28.997Z,1.42
2022-10-18T02:02:11.394Z,1.13
2022-10-18T02:04:53.448Z,1.02
2022-10-18T02:07:30.847Z,1.17
2022-10-18T02:10:09.653Z,1.50
2022-10-18T02:12:42.512Z,1.02
2022-10-18T02:15:15.272Z,1.10
2022-10-18T02:17:46.749Z,1.50
2022-10-18T02:20:20.725Z,0.90
2022-10-18T02:22:54.102Z,1.38
2022-10-18T02:25:27.792Z,1.40
2022-10-18T02:27:56.139Z,1.33
2022-10-18T02:30:34.233Z,1.17
2022-10-18T02:33:12.973Z,1.35
2022-10-18T02:35:47.739Z,1.95
2022-10-18T02:38:18.769Z,1.38
2022-10-18T02:40:46.464Z,1.52
2022-10-18T02:43:15.135Z,1.20
2022-10-18T02:45:43.307Z,1.50
2022-10-18T02:48:12.409Z,1.65
2022-10-18T02:50:40.135Z,1.83
2022-10-18T02:53:08.021Z,1.52
2022-10-18T02:55:35.699Z,1.67
2022-10-18T02:58:03.390Z,1.00
2022-10-18T03:00:31.223Z,1.70
2022-10-18T03:02:58.929Z,0.88
2022-10-18T03:05:28.034Z,1.30
2022-10-18T03:07:58.106Z,1.13
2022-10-18T03:10:25.918Z,1.50
2022-10-18T03:12:53.679Z,1.00
2022-10-18T03:15:21.371Z,1.40
2022-10-18T03:17:49.120Z,1.30
2022-10-18T03:20:16.994Z,1.40
2022-10-18T03:22:46.017Z,1.48
2022-10-18T03:25:13.754Z,0.95
2022-10-18T03:27:41.506Z,1.27
2022-10-18T03:30:11.592Z,1.52
2022-10-18T03:32:39.384Z,1.02
2022-10-18T03:35:09.125Z,1.25
2022-10-18T03:37:37.264Z,1.52
2022-10-18T03:40:09.114Z,1.45
2022-10-18T03:42:36.826Z,1.23
2022-10-18T03:45:05.582Z,1.45
2022-10-18T03:47:33.336Z,1.50
2022-10-18T03:50:01.067Z,1.35
2022-10-18T03:52:29.006Z,0.93
2022-10-18T03:54:56.798Z,1.88
2022-10-18T03:57:26.071Z,1.02
2022-10-18T03:59:53.820Z,1.70
2022-10-18T04:02:21.592Z,1.80
2022-10-18T04:04:49.404Z,1.17
2022-10-18T04:07:17.674Z,1.70
2022-10-18T04:09:45.414Z,1.33
2022-10-18T04:12:13.178Z,1.17
2022-10-18T04:14:42.279Z,1.10
2022-10-18T04:17:10.008Z,1.63
2022-10-18T04:19:37.698Z,1.52
2022-10-18T04:22:05.497Z,1.30
2022-10-18T04:24:33.234Z,1.65
2022-10-18T04:27:00.924Z,1.13
2022-10-18T04:29:28.641Z,1.73
2022-10-18T04:31:57.806Z,1.58
2022-10-18T04:34:25.553Z,1.35
2022-10-18T04:36:54.184Z,1.35
2022-10-18T04:39:21.937Z,1.50
2022-10-18T04:41:49.684Z,1.00
2022-10-18T04:44:17.714Z,1.23
2022-10-18T04:46:45.546Z,1.50
2022-10-18T04:49:14.781Z,1.30
2022-10-18T04:51:42.537Z,1.48
2022-10-18T04:54:10.317Z,1.73
2022-10-18T04:56:38.026Z,1.48
2022-10-18T04:59:05.855Z,1.48
2022-10-18T05:01:33.656Z,1.63
2022-10-18T05:04:01.366Z,1.33
2022-10-18T05:06:30.465Z,1.30
2022-10-18T05:08:58.255Z,1.38
2022-10-18T05:11:26.000Z,1.00
2022-10-18T05:13:53.884Z,1.45
2022-10-18T05:16:21.885Z,1.17
2022-10-18T05:18:49.670Z,1.55
2022-10-18T05:21:17.584Z,1.60
2022-10-18T05:23:47.009Z,1.20
2022-10-18T05:26:14.750Z,1.73
2022-10-18T05:28:42.523Z,1.55
2022-10-18T05:31:12.486Z,0.90
2022-10-18T05:33:40.341Z,1.00
2022-10-18T05:36:09.553Z,1.10
2022-10-18T05:38:42.572Z,1.58
2022-10-18T05:41:12.829Z,0.93
2022-10-18T05:43:41.135Z,1.50
2022-10-18T05:46:14.593Z,0.82
2022-10-18T05:48:44.103Z,1.05
2022-10-18T05:51:11.960Z,1.10
2022-10-18T05:53:39.773Z,1.25
2022-10-18T05:56:08.815Z,1.25
2022-10-18T05:58:38.010Z,1.70
2022-10-18T06:01:07.294Z,1.25
2022-10-18T06:03:36.024Z,0.90
2022-10-18T06:06:06.631Z,1.23
2022-10-18T06:08:35.334Z,1.75
2022-10-18T06:11:08.539Z,1.63
2022-10-18T06:13:40.259Z,1.35
2022-10-18T06:16:09.034Z,1.55
2022-10-18T06:18:36.836Z,1.90
2022-10-18T06:21:04.959Z,1.60
2022-10-18T06:23:32.989Z,1.08
2022-10-18T06:26:02.460Z,1.30
2022-10-18T06:28:31.117Z,1.67
2022-10-18T06:31:00.306Z,1.05
2022-10-18T06:33:28.212Z,1.00
2022-10-18T06:35:58.782Z,2.03
2022-10-18T06:38:27.046Z,1.48
2022-10-18T06:40:56.718Z,1.20
2022-10-18T06:43:25.181Z,1.48
2022-10-18T06:45:54.101Z,1.98
2022-10-18T06:48:23.961Z,1.77
2022-10-18T06:50:56.834Z,0.98
2022-10-18T06:53:25.299Z,1.42
2022-10-18T06:55:53.506Z,1.55
2022-10-18T06:58:21.188Z,1.70
2022-10-18T07:00:48.874Z,1.52
2022-10-18T07:03:16.605Z,1.10
2022-10-18T07:05:45.681Z,1.48
2022-10-18T07:08:13.408Z,1.27
2022-10-18T07:10:41.468Z,1.63
2022-10-18T07:16:06.924Z,1.45
2022-10-18T07:18:35.668Z,1.10
2022-10-18T07:21:07.564Z,0.73
2022-10-18T07:23:37.401Z,1.42
2022-10-18T07:26:13.658Z,1.08
2022-10-18T07:28:41.821Z,1.30
2022-10-18T07:31:11.679Z,1.30
2022-10-18T07:33:40.444Z,1.30
2022-10-18T07:36:12.473Z,1.35
2022-10-18T07:38:41.016Z,1.15
2022-10-18T07:41:12.322Z,1.40
2022-10-18T07:43:45.671Z,1.33
2022-10-18T07:46:15.233Z,1.33
2022-10-18T07:48:43.600Z,1.17
2022-10-18T07:51:13.040Z,1.05
2022-10-18T07:53:41.402Z,1.40
2022-10-18T07:56:15.936Z,0.68
2022-10-18T08:01:13.570Z,1.35
2022-10-18T08:03:43.907Z,1.13
2022-10-18T08:06:16.368Z,1.42
2022-10-18T08:08:44.536Z,1.95
2022-10-18T08:11:14.796Z,1.38
2022-10-18T08:13:42.911Z,0.95
2022-10-18T08:16:13.385Z,2.00
2022-10-18T08:18:41.954Z,1.25
2022-10-18T08:21:13.569Z,1.00
2022-10-18T08:23:42.193Z,1.25
2022-10-18T08:26:13.240Z,1.45
2022-10-18T08:28:46.021Z,1.27
2022-10-18T08:31:21.677Z,1.58
2022-10-18T08:33:49.443Z,1.67
2022-10-18T08:36:19.299Z,1.25
2022-10-18T08:38:47.232Z,1.27
2022-10-18T08:41:49.203Z,1.30
2022-10-18T08:44:23.657Z,1.13
2022-10-18T08:46:56.379Z,1.35
2022-10-18T08:49:31.608Z,1.55
2022-10-18T08:52:00.799Z,0.95
2022-10-18T08:54:38.657Z,1.00
2022-10-18T08:57:15.708Z,1.38
2022-10-18T08:59:44.038Z,0.98
2022-10-18T09:02:33.297Z,1.02
2022-10-18T09:05:18.161Z,1.33
2022-10-18T09:08:19.328Z,1.52
2022-10-18T09:11:08.133Z,0.98
2022-10-18T09:14:34.443Z,1.30
2022-10-18T09:20:02.578Z,1.38
2022-10-18T09:22:49.414Z,1.30
2022-10-18T09:25:23.766Z,1.00
2022-10-18T09:27:58.752Z,1.40
2022-10-18T09:30:42.325Z,1.30
2022-10-18T09:33:28.940Z,1.00
2022-10-18T09:36:00.115Z,1.42
2022-10-18T09:38:38.581Z,1.55
2022-10-18T09:41:14.620Z,1.35
2022-10-18T09:43:53.357Z,1.13
2022-10-18T09:46:27.706Z,1.75
2022-10-18T09:49:01.350Z,1.45
2022-10-18T09:51:37.101Z,1.77
2022-10-18T09:54:21.015Z,1.13
2022-10-18T09:56:58.332Z,1.17
2022-10-18T09:59:36.486Z,1.33
2022-10-18T10:02:04.877Z,1.77
2022-10-18T10:04:32.803Z,1.35
2022-10-18T10:07:02.919Z,1.52
2022-10-18T10:09:37.129Z,1.77
2022-10-18T10:12:06.541Z,1.33
2022-10-18T10:14:44.981Z,1.33
2022-10-18T10:17:25.985Z,1.40
2022-10-18T10:20:03.617Z,1.33
2022-10-18T10:22:38.931Z,1.30
2022-10-18T10:25:19.783Z,1.75
2022-10-18T10:27:49.092Z,0.98
2022-10-18T10:30:27.083Z,1.55
2022-10-18T10:32:57.266Z,1.45
2022-10-18T10:35:49.029Z,1.42
2022-10-18T10:38:25.698Z,1.63
2022-10-18T10:40:54.131Z,1.35
2022-10-18T10:43:43.786Z,1.35
2022-10-18T10:46:16.393Z,1.40
2022-10-18T10:48:56.306Z,1.08
2022-10-18T10:51:37.414Z,1.23
2022-10-18T10:54:13.354Z,1.58
2022-10-18T10:56:59.592Z,1.27
2022-10-18T10:59:39.393Z,1.33
2022-10-18T11:02:24.082Z,1.70
2022-10-18T11:07:28.191Z,1.60
2022-10-18T11:10:02.189Z,1.63
2022-10-18T11:12:35.945Z,1.50
2022-10-18T11:15:23.134Z,1.55
2022-10-18T11:18:11.545Z,1.40
2022-10-18T11:20:44.308Z,1.65
2022-10-18T11:23:15.215Z,1.67
2022-10-18T11:26:05.981Z,1.10
2022-10-18T11:28:53.812Z,1.80
2022-10-18T11:31:33.479Z,1.40
2022-10-18T11:34:21.456Z,1.63
2022-10-18T11:37:26.496Z,1.58
2022-10-18T11:40:04.810Z,1.50
2022-10-18T11:42:44.958Z,1.33
2022-10-18T11:45:33.398Z,1.60
2022-10-18T11:48:27.042Z,1.20
2022-10-18T11:51:05.697Z,1.58
2022-10-18T11:53:52.015Z,1.40
2022-10-18T11:56:31.506Z,1.55
2022-10-18T11:59:27.070Z,1.83
2022-10-18T12:02:26.004Z,1.23
2022-10-18T12:05:22.589Z,1.48
2022-10-18T12:08:00.701Z,1.55
2022-10-18T12:10:45.704Z,1.20
2022-10-18T12:13:34.075Z,1.88
2022-10-18T12:16:05.105Z,1.83
2022-10-18T12:18:34.817Z,1.50
2022-10-18T12:21:07.685Z,1.85
2022-10-18T12:23:45.146Z,1.25
2022-10-18T12:26:13.578Z,1.60
2022-10-18T12:28:56.722Z,1.55
2022-10-18T12:31:33.908Z,1.38
2022-10-18T12:34:25.900Z,1.25
2022-10-18T12:37:36.698Z,1.20
2022-10-18T12:40:17.013Z,1.50
2022-10-18T12:42:52.179Z,1.57
2022-10-18T12:45:28.862Z,1.58
2022-10-18T12:48:01.442Z,1.35
2022-10-18T12:50:36.823Z,1.38
2022-10-18T12:53:18.730Z,1.38
2022-10-18T12:55:49.370Z,1.40
2022-10-18T12:58:32.608Z,1.67
2022-10-18T13:01:08.383Z,1.65
2022-10-18T13:03:58.538Z,1.15
2022-10-18T13:06:26.805Z,1.65
2022-10-18T13:09:22.055Z,1.50
2022-10-18T13:23:00.891Z,1.80
2022-10-18T13:25:49.793Z,1.20
2022-10-18T13:28:30.028Z,1.63
2022-10-18T13:31:13.915Z,1.52
2022-10-18T13:33:43.138Z,1.10
2022-10-18T13:36:25.576Z,1.42
2022-10-18T13:39:05.271Z,2.08
2022-10-18T13:42:20.928Z,1.83
2022-10-18T13:44:49.415Z,1.13
2022-10-18T13:47:34.811Z,1.50
2022-10-18T13:50:31.719Z,2.30
2022-10-18T13:53:45.343Z,1.63
2022-10-18T13:56:52.323Z,1.77
2022-10-18T13:59:41.536Z,1.60
2022-10-18T14:02:51.722Z,1.90
2022-10-18T14:05:51.869Z,1.40
2022-10-18T14:08:26.157Z,1.70
2022-10-18T14:11:06.131Z,1.67
2022-10-18T14:13:48.420Z,1.70
2022-10-18T14:16:35.996Z,1.73
2022-10-18T14:19:19.720Z,2.03
2022-10-18T14:21:57.638Z,2.10
2022-10-18T14:24:28.368Z,1.40
2022-10-18T14:27:14.387Z,1.83
2022-10-18T14:29:43.584Z,1.55
2022-10-18T14:32:24.010Z,1.85
2022-10-18T14:34:51.936Z,1.90
2022-10-18T14:37:28.147Z,1.40
2022-10-18T14:39:56.076Z,2.10
2022-10-18T14:42:26.755Z,1.95
2022-10-18T14:44:56.656Z,1.60
2022-10-18T14:47:27.235Z,1.90
2022-10-18T14:49:57.635Z,2.25
2022-10-18T14:52:35.269Z,2.10
2022-10-18T14:55:04.655Z,2.25
2022-10-18T14:57:37.708Z,2.03
2022-10-18T15:00:18.482Z,1.92
2022-10-18T15:02:46.679Z,1.88
2022-10-18T15:05:21.780Z,1.90
2022-10-18T15:07:52.598Z,1.58
2022-10-18T15:10:26.294Z,1.67
2022-10-18T15:13:09.419Z,2.10
2022-10-18T15:15:40.968Z,1.83
2022-10-18T15:18:16.382Z,2.05
2022-10-18T15:20:44.188Z,1.60
2022-10-18T15:23:26.127Z,1.75
2022-10-18T15:26:03.469Z,1.85
2022-10-18T15:28:36.420Z,1.67
2022-10-18T15:31:06.794Z,1.42
2022-10-18T15:33:34.785Z,2.25
2022-10-18T15:36:25.606Z,1.88
2022-10-18T15:38:53.486Z,1.92
2022-10-18T15:41:41.325Z,1.42
2022-10-18T15:44:21.226Z,1.80
2022-10-18T15:46:53.765Z,1.38
2022-10-18T15:49:52.435Z,1.88
2022-10-18T15:52:44.284Z,1.67
2022-10-18T15:55:47.928Z,2.15
2022-10-18T15:58:23.405Z,2.10
2022-10-18T16:00:53.954Z,2.00
2022-10-18T16:03:24.107Z,1.70
2022-10-18T16:05:58.956Z,1.80
2022-10-18T16:08:30.380Z,1.63
2022-10-18T16:11:00.157Z,1.75
2022-10-18T16:13:28.374Z,2.03
2022-10-18T16:15:56.574Z,1.40
2022-10-18T16:18:27.312Z,1.60
2022-10-18T16:20:55.688Z,1.70
2022-10-18T16:23:28.628Z,2.10
2022-10-18T16:25:57.398Z,1.85
2022-10-18T16:28:27.078Z,2.42
2022-10-18T16:31:00.212Z,1.67
2022-10-18T16:33:29.260Z,1.92
2022-10-18T16:35:57.203Z,1.42
2022-10-18T16:38:34.853Z,1.90
2022-10-18T16:41:04.829Z,1.67
2022-10-18T16:43:32.982Z,2.50
2022-10-18T16:46:01.080Z,1.80
2022-10-18T16:48:30.533Z,1.85
2022-10-18T16:50:59.390Z,2.05
2022-10-18T16:53:27.909Z,2.20
2022-10-18T16:56:00.411Z,2.20
2022-10-18T16:58:30.604Z,1.95
2022-10-18T17:00:59.823Z,1.77
2022-10-18T17:03:30.180Z,1.70
2022-10-18T17:05:58.003Z,2.22
2022-10-18T17:08:28.691Z,2.10
2022-10-18T17:10:59.156Z,2.08
2022-10-18T17:13:27.500Z,1.75
2022-10-18T17:15:55.433Z,2.20
2022-10-18T17:18:27.355Z,1.90
2022-10-18T17:20:56.541Z,1.95
2022-10-18T17:23:24.271Z,2.00
2022-10-18T17:26:04.973Z,1.92
2022-10-18T17:28:34.927Z,2.17
2022-10-18T17:31:02.665Z,1.92
2022-10-18T17:33:30.381Z,2.33
2022-10-18T17:35:59.508Z,2.05
2022-10-18T17:38:27.274Z,2.58
2022-10-18T17:40:54.996Z,1.90
2022-10-18T17:43:22.761Z,2.33
2022-10-18T17:45:55.093Z,1.92
2022-10-18T17:48:24.353Z,2.13
2022-10-18T17:50:52.364Z,2.03
2022-10-18T17:53:22.894Z,1.90
2022-10-18T17:55:50.678Z,1.42
2022-10-18T17:58:18.457Z,1.80
2022-10-18T18:00:46.190Z,1.70
2022-10-18T18:03:14.029Z,1.95
2022-10-18T18:05:42.042Z,1.75
2022-10-18T18:08:09.937Z,1.85
2022-10-18T18:10:39.158Z,2.10
2022-10-18T18:13:07.248Z,2.88
2022-10-18T18:15:34.993Z,2.03
2022-10-18T18:18:02.719Z,2.40
2022-10-18T18:20:30.464Z,2.10
2022-10-18T18:22:58.147Z,2.20
2022-10-18T18:25:25.995Z,1.90
2022-10-18T18:27:55.466Z,1.60
2022-10-18T18:30:23.207Z,1.90
2022-10-18T18:32:51.032Z,2.63
2022-10-18T18:35:19.071Z,2.08
2022-10-18T18:37:50.986Z,1.92
2022-10-18T18:40:19.004Z,1.50
2022-10-18T18:43:01.618Z,2.50
2022-10-18T18:45:35.791Z,1.80
2022-10-18T18:48:03.493Z,1.77
2022-10-18T18:50:31.755Z,1.83
2022-10-18T18:52:59.596Z,2.25
2022-10-18T18:55:27.288Z,1.60
2022-10-18T18:57:54.984Z,1.77
2022-10-18T19:00:22.782Z,1.88
2022-10-18T19:02:51.803Z,2.05
2022-10-18T19:05:19.700Z,2.25
2022-10-18T19:07:47.531Z,2.10
2022-10-18T19:10:15.327Z,1.90
2022-10-18T19:12:43.037Z,2.17
2022-10-18T19:15:11.868Z,2.55
2022-10-18T19:17:39.582Z,2.20
2022-10-18T19:20:12.133Z,2.13
2022-10-18T19:22:40.356Z,2.00
2022-10-18T19:25:09.360Z,2.30
2022-10-18T19:27:38.360Z,2.28
2022-10-18T19:30:10.157Z,2.65
2022-10-18T19:32:37.871Z,2.10
2022-10-18T19:35:07.852Z,1.65
2022-10-18T19:37:35.925Z,2.00
2022-10-18T19:40:04.432Z,2.10
2022-10-18T19:42:32.297Z,2.28
2022-10-18T19:45:00.030Z,2.10
2022-10-18T19:47:27.829Z,1.90
2022-10-18T19:49:55.696Z,2.38
2022-10-18T19:52:24.721Z,2.03
2022-10-18T19:54:52.416Z,1.38
2022-10-18T19:57:20.125Z,1.77
2022-10-18T19:59:47.849Z,1.85
2022-10-18T20:02:15.856Z,1.80
2022-10-18T20:04:43.579Z,2.10
2022-10-18T20:07:11.305Z,1.70
2022-10-18T20:09:40.510Z,1.50
2022-10-18T20:12:08.296Z,2.50
2022-10-18T20:14:36.137Z,1.38
2022-10-18T20:17:05.669Z,1.75
2022-10-18T20:19:33.682Z,2.15
2022-10-18T20:22:01.413Z,1.80
2022-10-18T20:24:29.349Z,1.92
2022-10-18T20:26:58.441Z,1.80
2022-10-18T20:29:26.398Z,1.85
2022-10-18T20:31:55.565Z,1.95
2022-10-18T20:34:25.773Z,2.13
2022-10-18T20:36:55.666Z,1.88
2022-10-18T20:39:23.678Z,2.60
2022-10-18T20:41:51.420Z,2.40
2022-10-18T20:44:22.407Z,2.13
2022-10-18T20:46:50.126Z,2.22
2022-10-18T20:49:17.896Z,2.20
2022-10-18T20:51:46.318Z,2.20
2022-10-18T20:54:14.402Z,1.88
2022-10-18T20:56:42.232Z,1.83
2022-10-18T20:59:11.365Z,1.92
2022-10-18T21:01:41.100Z,2.15
2022-10-18T21:04:11.174Z,1.67
2022-10-18T21:06:42.239Z,2.60
2022-10-18T21:09:13.761Z,1.75
2022-10-18T21:11:45.712Z,2.15
2022-10-18T21:14:16.692Z,1.73
2022-10-18T21:16:47.185Z,1.90
2022-10-18T21:19:18.057Z,1.45
2022-10-18T21:21:49.467Z,1.77
2022-10-18T21:24:19.626Z,1.77
2022-10-18T21:26:48.537Z,1.95
2022-10-18T21:29:21.936Z,1.75
2022-10-18T21:31:57.881Z,1.92
2022-10-18T21:34:26.020Z,1.65
2022-10-18T21:36:53.883Z,1.90
2022-10-18T21:41:57.812Z,1.35
2022-10-18T21:44:25.771Z,2.20
2022-10-18T21:46:54.959Z,2.10
2022-10-18T21:49:24.817Z,2.67
2022-10-18T21:51:52.697Z,2.30
2022-10-18T21:54:20.461Z,2.40
2022-10-18T21:56:48.384Z,1.77
2022-10-18T21:59:16.102Z,2.00
2022-10-18T22:01:44.950Z,2.35
2022-10-18T22:04:22.876Z,1.73
2022-10-18T22:06:51.662Z,2.13
2022-10-18T22:09:21.007Z,2.25
2022-10-18T22:11:53.557Z,2.10
2022-10-18T22:14:21.856Z,2.30
2022-10-18T22:16:50.008Z,2.40
2022-10-18T22:19:17.809Z,2.75
2022-10-18T22:21:46.918Z,2.10
2022-10-18T22:24:14.682Z,2.22
2022-10-18T22:26:44.649Z,2.38
2022-10-18T22:29:16.233Z,2.17
2022-10-18T22:31:48.230Z,2.33
2022-10-18T22:34:19.056Z,2.50
2022-10-18T22:36:48.382Z,2.33
2022-10-18T22:39:16.771Z,2.28
2022-10-18T22:41:45.222Z,2.75
2022-10-18T22:44:14.917Z,2.50
2022-10-18T22:46:43.810Z,2.65
2022-10-18T22:49:12.594Z,2.38
2022-10-18T22:51:41.247Z,2.83
2022-10-18T22:54:10.979Z,2.50
2022-10-18T22:56:38.874Z,2.20
2022-10-18T22:59:06.686Z,2.47
2022-10-18T23:01:34.465Z,2.72
2022-10-18T23:04:03.216Z,2.22
2022-10-18T23:06:33.899Z,2.60
2022-10-18T23:09:05.640Z,3.03
2022-10-18T23:11:36.460Z,2.63
2022-10-18T23:14:05.756Z,2.22
2022-10-18T23:16:33.812Z,2.70
2022-10-18T23:19:01.610Z,2.45
2022-10-18T23:21:29.957Z,2.63
2022-10-18T23:23:58.589Z,2.50
2022-10-18T23:26:29.000Z,2.30
2022-10-18T23:28:58.295Z,1.73
2022-10-18T23:31:29.511Z,2.40
2022-10-18T23:34:00.338Z,2.63
2022-10-18T23:36:28.974Z,2.65
2022-10-18T23:38:57.034Z,2.63
2022-10-18T23:41:25.648Z,2.17
2022-10-18T23:43:54.066Z,1.92
2022-10-18T23:46:23.402Z,2.63
2022-10-18T23:48:51.386Z,2.25
2022-10-18T23:51:19.399Z,2.20
2022-10-18T23:53:47.303Z,2.45
2022-10-18T23:56:17.242Z,2.38
2022-10-18T23:58:46.584Z,2.22
